CST,Max TemperatureF,Mean TemperatureF,Min TemperatureF,Max Dew PointF,MeanDew PointF,Min DewpointF,Max Humidity, Mean Humidity, Min Humidity, Max Sea Level PressureIn, Mean Sea Level PressureIn, Min Sea Level PressureIn, Max VisibilityMiles, Mean VisibilityMiles, Min VisibilityMiles, Max Wind SpeedMPH, Mean Wind SpeedMPH, Max Gust SpeedMPH,PrecipitationIn, CloudCover, Events, WindDirDegrees
2013-11-1,53,44,35,36,33,28,81,67,47,29.93,29.70,29.50,10,10,6,25,13,32,0.04,4,,296
2013-11-2,53,42,30,34,29,25,81,62,38,30.12,30.05,29.94,10,10,8,16,11,22,0.00,2,,271
2013-11-3,55,45,35,30,27,25,70,53,33,30.05,29.87,29.74,10,10,10,33,15,47,0.00,0,,165
2013-11-4,48,39,30,36,30,21,81,64,50,30.16,29.93,29.76,10,10,7,17,13,26,0.01,3,,242
2013-11-5,35,30,26,27,23,18,80,72,60,30.21,30.12,30.01,10,7,1,25,8,30,0.03,6,,16
2013-11-6,33,27,21,25,20,12,86,70,56,30.19,30.14,30.05,10,9,0,23,14,28,0.03,3,,280
2013-11-7,35,30,24,25,20,18,86,69,56,30.31,30.24,30.19,10,8,0,17,11,20,0.00,2,,259
2013-11-8,48,37,26,36,26,18,71,61,52,30.19,29.85,29.62,10,10,10,25,14,36,0.00,2,,202
2013-11-9,46,37,28,34,27,19,75,63,49,30.32,30.05,29.76,10,10,10,28,16,33,0.00,2,,287
2013-11-10,41,30,19,27,22,12,80,67,53,30.36,30.25,30.08,10,10,10,17,9,20,0.00,3,,228
2013-11-11,37,22,5,27,9,-2,75,66,53,30.73,30.45,30.11,10,9,1,29,17,36,0.00,3,,348
2013-11-12,26,14,3,10,4,-6,78,61,47,30.77,30.65,30.42,10,10,8,18,10,24,0.00,0,,239
2013-11-13,53,38,24,30,21,9,65,52,38,30.41,30.09,29.91,10,10,10,29,20,38,0.00,0,,211
2013-11-14,55,44,32,36,29,25,81,65,47,29.91,29.87,29.82,10,10,10,18,11,21,0.00,2,,243
2013-11-15,55,42,28,37,29,23,86,66,47,29.85,29.75,29.56,10,10,4,20,9,25,0.00,0,,188
2013-11-16,53,44,35,45,35,27,87,73,57,29.55,29.37,29.23,10,7,1,18,13,25,0.00,4,,188
2013-11-17,48,42,35,34,30,25,87,68,50,29.94,29.59,29.36,10,9,4,28,11,34,0.00,4,,298
2013-11-18,42,34,26,23,21,19,74,63,42,30.21,30.13,29.95,10,10,8,18,12,23,0.00,1,,293
2013-11-19,55,42,28,28,25,19,75,53,33,30.18,29.95,29.81,10,10,10,29,17,39,0.00,0,,164
2013-11-20,50,39,28,28,26,21,80,55,43,30.01,29.84,29.78,10,10,7,25,17,32,0.00,0,,162
2013-11-21,28,22,15,23,12,3,80,67,58,30.54,30.31,30.02,10,9,2,29,20,34,0.00,7,,342
2013-11-22,30,16,3,9,3,-6,72,55,32,30.65,30.55,30.49,10,10,10,26,13,33,0.00,1,,294
2013-11-23,15,8,1,0,-3,-6,72,61,45,30.83,30.74,30.65,10,10,10,17,11,23,0.00,0,,328
2013-11-24,33,20,8,12,6,-2,67,53,41,30.64,30.29,30.00,10,10,10,33,18,41,0.00,0,,200
2013-11-25,41,32,24,25,18,12,74,59,42,30.14,30.05,29.94,10,10,10,25,17,31,0.00,3,,286
2013-11-26,30,20,8,18,5,0,67,53,34,30.37,30.28,30.13,10,10,10,29,18,37,0.00,2,,332
2013-11-27,26,14,1,7,3,-6,79,60,37,30.37,30.15,29.95,10,10,9,24,9,29,0.00,0,,196
2013-11-28,26,17,8,12,7,0,73,63,50,30.45,30.29,29.99,10,10,10,21,11,24,0.00,2,,332
2013-11-29,35,22,8,19,11,0,73,61,44,30.45,30.26,30.06,10,10,8,24,10,29,0.00,0,,172
2013-11-30,44,34,24,25,20,18,74,61,42,30.17,30.07,30.01,10,10,9,18,12,25,0.00,0,,305